Startpagina
METAR-TAF:

METAR-TAF

Vliegvelden :

Vliegbasis Deelen

Arnhem, Nederland

breedte: 52-04N, lengte: 005-53E, hoogte: 48 m

Actueel weer

Dit bericht is 15 minuten geleden gemaakt, om 00:25 UTC
Wind 4 kt uit het zuidoosten, variërend tussen het oosten en het zuidzuidwesten
Temperatuur 5°C
Vochtigheid 93%
Druk 1025 hPa
Zicht: 7000 m
Geheel bewolkt op 32000 ft
nevel

METAR: EHDL 150025Z AUTO 13004KT 080V200 7000 BR OVC320 05/04 Q1025 WHT

Tijdstip: 01:40 (00:40 UTC)

Verwachting

Dit bericht is 6 uur en het 51 minuten geleden gemaakt, om 17:49 UTC
Verwachting geldig van 14 om 18 UTC tot 15 om 06 UTC
Wind 6 kt uit het zuidoosten
Zicht 10 km of meer
geen wolken onder 1500 m en geen cumulonimbus
Kans 40%
van 15 om 03 UTC tot 15 om 06 UTC
Zicht: 3000 m
nevel

TAF: EHDL 141749Z 1418/1506 14006KT CAVOK PROB40 1503/1506 3000 BR

Waarnemingen en weersverwachtingen van meer dan 4000 vliegvelden (METAR en TAF).

De beschikbare stations zijn de gele en rode punten op de kaart.

Ga met uw muis naar het station om de naam te zien.

Klik dan om waarnemingen en weersverwachtingen te zien.

kaart wijzigen: klik op de groene knoppen met een zwart kruis om in te zoomen, op de groene knop met een streepje om uit te zoomen of op de groene pijlen voor aangrenzende kaarten.


METAR-TAF: